»·PEaware :: DAL421 KSLC-KIDA

DAL421 :: KSLC-KIDA

FLIGHT INFORMATION

Flight Status: Arrived
Operator:
Delta Air Lines
More flights by this operator :: More flights under this callsign
Pilot: Jesse M. (22378)
Aircraft: BOEING 737-300
(B733)
More flights by this aircraft type
Origin: KSLC Salt Lake City Intl
United States
Destination: KIDA Idaho Falls Regl
United States
More flights between these airports :: More routes between these airports
Route: RUGGD1 HOLTR
File this flight plan on PilotEdge
Remarks: 104TH_KNIGHT / YOUTUBE
Altitude:
(Current/Filed)
22,000ft
Speed:
(Current/Filed)
400kts
Departed: 06-Dec-18 01:58 PM
Arrived: 06-Dec-18 02:43 PM
Distance/Time
Traveled:
164nm/0:45
Distance/Time
To Go:
Arrived

Flight Plot

Page will automatically refresh every two minutes.

Flight plan parsing failed; only flown route is shown


Map Options




Map Legend


Flown Route
Filed Route
Departure Airport
Arrival Airport
Navaid (VOR, NDB)
Fix

Horizontal Profiles

Position Reports

Time Latitude Longitude Heading Altitude Ground
Speed
06-Dec-18 13:20 40.787742 -111.981143 283 4234ft 0kts
06-Dec-18 13:21 40.787742 -111.981143 283 4234ft 0kts
06-Dec-18 13:22 40.787742 -111.981143 283 4234ft 0kts
06-Dec-18 13:23 40.787742 -111.981143 283 4234ft 0kts
06-Dec-18 13:27 40.787742 -111.981143 283 4234ft 0kts
06-Dec-18 13:28 40.787742 -111.981143 283 4234ft 0kts
06-Dec-18 13:29 40.787742 -111.981143 283 4234ft 0kts
06-Dec-18 13:30 40.787742 -111.981143 283 4234ft 0kts
06-Dec-18 13:31 40.787742 -111.981143 283 4234ft 0kts
06-Dec-18 13:32 40.787742 -111.981143 283 4234ft 0kts
06-Dec-18 13:33 40.787742 -111.981143 283 4234ft 0kts
06-Dec-18 13:34 40.787742 -111.981143 283 4234ft 0kts
06-Dec-18 13:35 40.787742 -111.981143 283 4234ft 0kts
06-Dec-18 13:36 40.787742 -111.981143 283 4234ft 0kts
06-Dec-18 13:37 40.787742 -111.981143 283 4234ft 0kts
06-Dec-18 13:38 40.787742 -111.981143 283 4234ft 0kts
06-Dec-18 13:39 40.787742 -111.981143 283 4234ft 0kts
06-Dec-18 13:40 40.787742 -111.981143 283 4234ft 0kts
06-Dec-18 13:41 40.787742 -111.981143 283 4234ft 0kts
06-Dec-18 13:42 40.787742 -111.981143 283 4234ft 0kts
06-Dec-18 13:44 40.787742 -111.981143 283 4234ft 0kts
06-Dec-18 13:45 40.787735 -111.981104 283 4234ft 2kts
06-Dec-18 13:46 40.787418 -111.980483 343 4234ft 2kts
06-Dec-18 13:47 40.787105 -111.980504 18 4234ft 0kts
06-Dec-18 13:48 40.787105 -111.980504 18 4234ft 0kts
06-Dec-18 13:49 40.787709 -111.980238 19 4234ft 8kts
06-Dec-18 13:50 40.789685 -111.978735 83 4234ft 6kts
06-Dec-18 13:51 40.789698 -111.978530 85 4234ft 0kts
06-Dec-18 13:52 40.789699 -111.978529 85 4234ft 0kts
06-Dec-18 13:53 40.789680 -111.977352 114 4234ft 12kts
06-Dec-18 13:54 40.785501 -111.976565 174 4234ft 17kts
06-Dec-18 13:55 40.780522 -111.975989 174 4234ft 18kts
06-Dec-18 13:56 40.776646 -111.975039 175 4234ft 14kts
06-Dec-18 13:57 40.774825 -111.973528 45 4234ft 12kts
06-Dec-18 13:58 40.801412 -111.976264 354 4530ft 197kts
06-Dec-18 13:59 40.863246 -111.981496 356 7222ft 242kts
06-Dec-18 14:00 40.932908 -111.987274 355 9812ft 274kts
06-Dec-18 14:00 40.999012 -111.995156 353 12081ft 293kts
06-Dec-18 14:02 41.098073 -112.007480 358 14956ft 326kts
06-Dec-18 14:03 41.193591 -112.008330 357 17118ft 354kts
06-Dec-18 14:03 41.276956 -112.010140 356 19036ft 369kts
06-Dec-18 14:04 41.381043 -112.012513 356 21214ft 383kts
06-Dec-18 14:06 41.507426 -112.015425 355 22224ft 395kts
06-Dec-18 14:07 41.616493 -112.017944 355 22212ft 393kts
06-Dec-18 14:07 41.706939 -112.020041 355 22212ft 391kts
06-Dec-18 14:09 41.833389 -112.022990 355 22212ft 391kts
06-Dec-18 14:09 41.924095 -112.025110 355 22212ft 391kts
06-Dec-18 14:11 42.050030 -112.028064 355 22193ft 390kts
06-Dec-18 14:11 42.139969 -112.030169 355 22205ft 391kts
06-Dec-18 14:12 42.248364 -112.032714 355 22212ft 391kts
06-Dec-18 14:13 42.353756 -112.035182 355 21100ft 363kts
06-Dec-18 14:14 42.454026 -112.037586 356 20109ft 360kts
06-Dec-18 14:15 42.552951 -112.039943 356 19116ft 353kts
06-Dec-18 14:16 42.650151 -112.042269 356 18121ft 347kts
06-Dec-18 14:17 42.745782 -112.044571 356 17127ft 345kts
06-Dec-18 14:18 42.839826 -112.046852 357 16130ft 335kts
06-Dec-18 14:19 42.932331 -112.049091 357 15988ft 334kts
06-Dec-18 14:20 43.025138 -112.051311 357 15991ft 334kts
06-Dec-18 14:21 43.105931 -112.091182 333 16005ft 286kts
06-Dec-18 14:22 43.172599 -112.133870 335 14549ft 260kts
06-Dec-18 14:23 43.237459 -112.174033 335 12662ft 254kts
06-Dec-18 14:24 43.301800 -112.213750 336 10737ft 252kts
06-Dec-18 14:25 43.365941 -112.232348 32 8968ft 247kts
06-Dec-18 14:26 43.356970 -112.162454 177 7960ft 252kts
06-Dec-18 14:27 43.296740 -112.207453 215 7996ft 251kts
06-Dec-18 14:28 43.292345 -112.294724 331 8020ft 271kts
06-Dec-18 14:29 43.345084 -112.251614 49 8022ft 244kts
06-Dec-18 14:30 43.393777 -112.189599 37 7989ft 238kts
06-Dec-18 14:31 43.446690 -112.135205 34 7991ft 238kts
06-Dec-18 14:32 43.504238 -112.093986 0 7991ft 236kts
06-Dec-18 14:33 43.556502 -112.139900 293 7991ft 239kts
06-Dec-18 14:34 43.543405 -112.225389 223 7990ft 246kts
06-Dec-18 14:35 43.478530 -112.245767 180 7993ft 248kts
06-Dec-18 14:36 43.409537 -112.245588 180 7870ft 250kts
06-Dec-18 14:37 43.353524 -112.213577 93 6982ft 238kts
06-Dec-18 14:38 43.395729 -112.168396 9 6158ft 197kts
06-Dec-18 14:39 43.442338 -112.149560 36 5578ft 167kts
06-Dec-18 14:40 43.474591 -112.114531 35 5549ft 139kts
06-Dec-18 14:41 43.506097 -112.081234 35 4754ft 138kts
06-Dec-18 14:42 43.516687 -112.067970 204 4745ft 10kts
06-Dec-18 14:43 43.515110 -112.068672 141 4745ft 0kts
06-Dec-18 14:44 43.515110 -112.068672 141 4745ft 0kts

Navigation Log

Ident Type
Flight plan parsing failed, navigation log unavailable